Oslo Bulk 1 — 9V8766 — position and weather

sailwx.info

Track history (hours):
 
Tides and Currents Weather Stations Pressure Air Temp Water Temp Dewpoint Dewpoint Depression Visibility Wind Speed Wind Dir Waves Ship Positions

Oslo Bulk 1

Last reported at 2016-Sep-27 00:33 UTC. Time now 2016-Sep-28 22:14 UTC.
Position S 26°43' E 153°11'.

Length 108 m; draft 4.7 m.

Type: Ship. MMSI: 564010000.

Date/timePositionNaut miles runAvg speedWind from/ knotsBaromVisibWave heightAir tempDewpointWater temp
2016-Sep-27 00:33S 26°43' E 153°11'39 9.7
2016-Sep-26 20:31S 27°23' E 153°10'0 0.0
2016-Sep-26 19:33S 27°23' E 153°10'0 0.0
2016-Sep-26 15:33S 27°23' E 153°10'0 0.0
2016-Sep-26 13:33S 27°23' E 153°10'0 0.0
2016-Sep-26 11:33S 27°23' E 153°10'0 0.0
2016-Sep-26 08:33S 27°23' E 153°10'0 0.0
2016-Sep-26 02:33S 27°23' E 153°10'0 0.0
2016-Sep-26 01:33S 27°23' E 153°10'0 0.0
2016-Sep-26 00:33S 27°23' E 153°10'0 0.0
2016-Sep-25 21:33S 27°23' E 153°10'15 3.8
2016-Sep-25 17:33S 27°10' E 153°20'1211.9
2016-Sep-25 16:33S 26°59' E 153°14'1111.2
2016-Sep-25 15:33S 26°49' E 153°10'7 7.3
2016-Sep-25 14:33S 26°42' E 153°13'3 0.9
2016-Sep-25 11:32S 26°41' E 153°16'0 0.1
2016-Sep-25 10:26S 26°41' E 153°16'0 0.1
2016-Sep-25 07:26S 26°41' E 153°16'0 0.0
2016-Sep-25 04:29S 26°41' E 153°16'0 0.0
2016-Sep-25 00:32S 26°41' E 153°16'0 0.0
2016-Sep-24 22:32S 26°41' E 153°16'2 1.7
2016-Sep-24 21:33S 26°40' E 153°17'  
2016-Sep-20 14:30S 27°08' E 153°44'10 9.2
2016-Sep-20 13:25S 27°18' E 153°44'22 7.8
2016-Sep-20 10:33S 27°41' E 153°48'300 9.4
2016-Sep-19 02:33S 32°35' E 152°41'17 8.4
2016-Sep-19 00:33S 32°46' E 152°26'35 6.9
2016-Sep-18 19:31S 32°54' E 151°46'0 0.0
2016-Sep-18 15:31S 32°54' E 151°46'0 0.0
2016-Sep-18 14:31S 32°54' E 151°46'0 0.0
2016-Sep-18 10:31S 32°54' E 151°46'0 0.0
2016-Sep-18 09:28S 32°54' E 151°46'190 8.3
2016-Sep-17 10:32S 35°56' E 150°44'1210.6
2016-Sep-17 09:24S 36°08' E 150°40'910.3
2016-Sep-17 08:32S 36°16' E 150°36'1010.4
2016-Sep-17 07:34S 36°26' E 150°33'2010.0
2016-Sep-17 05:33S 36°45' E 150°25'1010.0
2016-Sep-17 04:33S 36°55' E 150°22'4010.0
2016-Sep-17 00:33S 37°33' E 150°07'  
Track history (hours):
 
Tides and Currents Weather Stations Pressure Air Temp Water Temp Dewpoint Dewpoint Depression Visibility Wind Speed Wind Dir Waves Ship Positions

Oslo Bulk 1

Last reported at 2016-Sep-27 00:33 UTC. Time now 2016-Sep-28 22:14 UTC.
Position S 26°43' E 153°11'.

Length 108 m; draft 4.7 m.

Type: Ship. MMSI: 564010000.

Date/timePositionNaut miles runAvg speedWind from/ knotsBaromVisibWave heightAir tempDewpointWater temp
2016-Sep-27 00:33S 26°43' E 153°11'39 9.7
2016-Sep-26 20:31S 27°23' E 153°10'0 0.0
2016-Sep-26 19:33S 27°23' E 153°10'0 0.0
2016-Sep-26 15:33S 27°23' E 153°10'0 0.0
2016-Sep-26 13:33S 27°23' E 153°10'0 0.0
2016-Sep-26 11:33S 27°23' E 153°10'0 0.0
2016-Sep-26 08:33S 27°23' E 153°10'0 0.0
2016-Sep-26 02:33S 27°23' E 153°10'0 0.0
2016-Sep-26 01:33S 27°23' E 153°10'0 0.0
2016-Sep-26 00:33S 27°23' E 153°10'0 0.0
2016-Sep-25 21:33S 27°23' E 153°10'15 3.8
2016-Sep-25 17:33S 27°10' E 153°20'1211.9
2016-Sep-25 16:33S 26°59' E 153°14'1111.2
2016-Sep-25 15:33S 26°49' E 153°10'7 7.3
2016-Sep-25 14:33S 26°42' E 153°13'3 0.9
2016-Sep-25 11:32S 26°41' E 153°16'0 0.1
2016-Sep-25 10:26S 26°41' E 153°16'0 0.1
2016-Sep-25 07:26S 26°41' E 153°16'0 0.0
2016-Sep-25 04:29S 26°41' E 153°16'0 0.0
2016-Sep-25 00:32S 26°41' E 153°16'0 0.0
2016-Sep-24 22:32S 26°41' E 153°16'2 1.7
2016-Sep-24 21:33S 26°40' E 153°17'  
2016-Sep-20 14:30S 27°08' E 153°44'10 9.2
2016-Sep-20 13:25S 27°18' E 153°44'22 7.8
2016-Sep-20 10:33S 27°41' E 153°48'300 9.4
2016-Sep-19 02:33S 32°35' E 152°41'17 8.4
2016-Sep-19 00:33S 32°46' E 152°26'35 6.9
2016-Sep-18 19:31S 32°54' E 151°46'0 0.0
2016-Sep-18 15:31S 32°54' E 151°46'0 0.0
2016-Sep-18 14:31S 32°54' E 151°46'0 0.0
2016-Sep-18 10:31S 32°54' E 151°46'0 0.0
2016-Sep-18 09:28S 32°54' E 151°46'190 8.3
2016-Sep-17 10:32S 35°56' E 150°44'1210.6
2016-Sep-17 09:24S 36°08' E 150°40'910.3
2016-Sep-17 08:32S 36°16' E 150°36'1010.4
2016-Sep-17 07:34S 36°26' E 150°33'2010.0
2016-Sep-17 05:33S 36°45' E 150°25'1010.0
2016-Sep-17 04:33S 36°55' E 150°22'4010.0
2016-Sep-17 00:33S 37°33' E 150°07'  

Dump ship's entire track history